sensor_id;sensor_type;location;lat;lon;timestamp;temperature;humidity
42683;DHT22;28293;50.930;3.464;2022-11-14T00:02:15;3.60;91.30
42683;DHT22;28293;50.930;3.464;2022-11-14T00:04:45;3.60;91.30
42683;DHT22;28293;50.930;3.464;2022-11-14T00:07:11;3.60;91.30
42683;DHT22;28293;50.930;3.464;2022-11-14T00:09:37;3.60;91.30
42683;DHT22;28293;50.930;3.464;2022-11-14T00:12:05;3.60;91.30
42683;DHT22;28293;50.930;3.464;2022-11-14T00:14:30;3.60;91.30
42683;DHT22;28293;50.930;3.464;2022-11-14T00:16:56;3.60;91.40
42683;DHT22;28293;50.930;3.464;2022-11-14T00:19:22;3.60;91.20
42683;DHT22;28293;50.930;3.464;2022-11-14T00:21:48;3.60;91.00
42683;DHT22;28293;50.930;3.464;2022-11-14T00:24:14;3.50;90.90
42683;DHT22;28293;50.930;3.464;2022-11-14T00:26:40;3.50;90.90
42683;DHT22;28293;50.930;3.464;2022-11-14T00:29:05;3.50;91.00
42683;DHT22;28293;50.930;3.464;2022-11-14T00:31:31;3.50;91.10
42683;DHT22;28293;50.930;3.464;2022-11-14T00:33:57;3.50;91.20
42683;DHT22;28293;50.930;3.464;2022-11-14T00:36:23;3.50;91.20
42683;DHT22;28293;50.930;3.464;2022-11-14T00:38:52;3.60;91.20
42683;DHT22;28293;50.930;3.464;2022-11-14T00:41:18;3.50;91.20
42683;DHT22;28293;50.930;3.464;2022-11-14T00:43:44;3.50;91.30
42683;DHT22;28293;50.930;3.464;2022-11-14T00:46:09;3.50;91.30
42683;DHT22;28293;50.930;3.464;2022-11-14T00:48:35;3.50;91.30
42683;DHT22;28293;50.930;3.464;2022-11-14T00:51:01;3.50;91.40
42683;DHT22;28293;50.930;3.464;2022-11-14T00:53:27;3.50;91.40
42683;DHT22;28293;50.930;3.464;2022-11-14T00:55:53;3.50;91.40
42683;DHT22;28293;50.930;3.464;2022-11-14T00:58:19;3.50;91.40
42683;DHT22;28293;50.930;3.464;2022-11-14T01:00:44;3.60;91.40
42683;DHT22;28293;50.930;3.464;2022-11-14T01:03:10;3.60;91.40
42683;DHT22;28293;50.930;3.464;2022-11-14T01:05:43;3.60;91.40
42683;DHT22;28293;50.930;3.464;2022-11-14T01:08:10;3.60;91.40
42683;DHT22;28293;50.930;3.464;2022-11-14T01:10:54;3.60;91.30
42683;DHT22;28293;50.930;3.464;2022-11-14T01:13:20;3.50;91.30
42683;DHT22;28293;50.930;3.464;2022-11-14T01:15:47;3.50;91.30
42683;DHT22;28293;50.930;3.464;2022-11-14T01:18:16;3.40;91.30
42683;DHT22;28293;50.930;3.464;2022-11-14T01:20:43;3.50;91.40
42683;DHT22;28293;50.930;3.464;2022-11-14T01:23:10;3.50;91.40
42683;DHT22;28293;50.930;3.464;2022-11-14T01:25:37;3.60;91.40
42683;DHT22;28293;50.930;3.464;2022-11-14T01:28:09;3.50;91.30
42683;DHT22;28293;50.930;3.464;2022-11-14T01:30:36;3.50;91.40
42683;DHT22;28293;50.930;3.464;2022-11-14T01:33:02;3.50;91.40
42683;DHT22;28293;50.930;3.464;2022-11-14T01:35:28;3.50;91.40
42683;DHT22;28293;50.930;3.464;2022-11-14T01:37:54;3.50;91.50
42683;DHT22;28293;50.930;3.464;2022-11-14T01:40:20;3.50;91.50
42683;DHT22;28293;50.930;3.464;2022-11-14T01:46:05;3.50;91.70
42683;DHT22;28293;50.930;3.464;2022-11-14T01:48:36;3.50;91.60
42683;DHT22;28293;50.930;3.464;2022-11-14T01:51:14;3.60;91.70
42683;DHT22;28293;50.930;3.464;2022-11-14T01:53:42;3.60;91.70
42683;DHT22;28293;50.930;3.464;2022-11-14T01:56:11;3.50;91.60
42683;DHT22;28293;50.930;3.464;2022-11-14T01:58:42;3.50;91.70
42683;DHT22;28293;50.930;3.464;2022-11-14T02:01:09;3.50;91.70
42683;DHT22;28293;50.930;3.464;2022-11-14T02:03:37;3.50;91.70
42683;DHT22;28293;50.930;3.464;2022-11-14T02:06:03;3.50;91.80
42683;DHT22;28293;50.930;3.464;2022-11-14T02:08:31;3.50;91.80
42683;DHT22;28293;50.930;3.464;2022-11-14T02:10:57;3.60;91.80
42683;DHT22;28293;50.930;3.464;2022-11-14T02:13:23;3.50;91.90
42683;DHT22;28293;50.930;3.464;2022-11-14T02:15:49;3.50;91.80
42683;DHT22;28293;50.930;3.464;2022-11-14T02:18:15;3.50;91.90
42683;DHT22;28293;50.930;3.464;2022-11-14T02:20:41;3.50;91.90
42683;DHT22;28293;50.930;3.464;2022-11-14T02:23:09;3.50;91.90
42683;DHT22;28293;50.930;3.464;2022-11-14T02:25:36;3.50;91.90
42683;DHT22;28293;50.930;3.464;2022-11-14T02:28:03;3.50;92.00
42683;DHT22;28293;50.930;3.464;2022-11-14T02:30:29;3.50;92.00
42683;DHT22;28293;50.930;3.464;2022-11-14T02:32:54;3.50;91.90
42683;DHT22;28293;50.930;3.464;2022-11-14T02:35:20;3.40;91.80
42683;DHT22;28293;50.930;3.464;2022-11-14T02:37:46;3.30;91.80
42683;DHT22;28293;50.930;3.464;2022-11-14T02:40:12;3.30;91.90
42683;DHT22;28293;50.930;3.464;2022-11-14T02:42:38;3.30;92.00
42683;DHT22;28293;50.930;3.464;2022-11-14T02:45:04;3.30;92.00
42683;DHT22;28293;50.930;3.464;2022-11-14T02:47:30;3.40;92.10
42683;DHT22;28293;50.930;3.464;2022-11-14T02:49:56;3.40;92.10
42683;DHT22;28293;50.930;3.464;2022-11-14T02:52:22;3.40;92.10
42683;DHT22;28293;50.930;3.464;2022-11-14T02:54:47;3.50;92.20
42683;DHT22;28293;50.930;3.464;2022-11-14T02:57:13;3.40;92.10
42683;DHT22;28293;50.930;3.464;2022-11-14T02:59:39;3.40;92.30
42683;DHT22;28293;50.930;3.464;2022-11-14T03:02:04;3.50;92.30
42683;DHT22;28293;50.930;3.464;2022-11-14T03:04:30;3.50;92.40
42683;DHT22;28293;50.930;3.464;2022-11-14T03:06:56;3.60;92.40
42683;DHT22;28293;50.930;3.464;2022-11-14T03:09:22;3.60;92.40
42683;DHT22;28293;50.930;3.464;2022-11-14T03:11:47;3.70;92.50
42683;DHT22;28293;50.930;3.464;2022-11-14T03:14:13;3.70;92.50
42683;DHT22;28293;50.930;3.464;2022-11-14T03:16:39;3.70;92.50
42683;DHT22;28293;50.930;3.464;2022-11-14T03:19:05;3.70;92.50
42683;DHT22;28293;50.930;3.464;2022-11-14T03:21:30;3.80;92.60
42683;DHT22;28293;50.930;3.464;2022-11-14T03:23:56;3.80;92.60
42683;DHT22;28293;50.930;3.464;2022-11-14T03:26:22;3.80;92.60
42683;DHT22;28293;50.930;3.464;2022-11-14T03:28:48;3.80;92.60
42683;DHT22;28293;50.930;3.464;2022-11-14T03:31:14;3.80;92.70
42683;DHT22;28293;50.930;3.464;2022-11-14T03:33:40;3.80;92.70
42683;DHT22;28293;50.930;3.464;2022-11-14T03:36:06;3.90;92.70
42683;DHT22;28293;50.930;3.464;2022-11-14T03:38:32;3.90;92.80
42683;DHT22;28293;50.930;3.464;2022-11-14T03:40:58;3.80;92.80
42683;DHT22;28293;50.930;3.464;2022-11-14T03:43:24;3.80;92.90
42683;DHT22;28293;50.930;3.464;2022-11-14T03:45:50;3.80;92.80
42683;DHT22;28293;50.930;3.464;2022-11-14T03:48:16;3.90;92.80
42683;DHT22;28293;50.930;3.464;2022-11-14T03:50:42;3.90;92.90
42683;DHT22;28293;50.930;3.464;2022-11-14T03:53:08;3.90;92.90
42683;DHT22;28293;50.930;3.464;2022-11-14T03:55:34;3.90;92.90
42683;DHT22;28293;50.930;3.464;2022-11-14T03:58:00;4.00;93.00
42683;DHT22;28293;50.930;3.464;2022-11-14T04:00:25;3.90;93.00
42683;DHT22;28293;50.930;3.464;2022-11-14T04:02:54;3.90;93.00
42683;DHT22;28293;50.930;3.464;2022-11-14T04:05:20;3.90;93.00
42683;DHT22;28293;50.930;3.464;2022-11-14T04:07:46;3.90;93.00
42683;DHT22;28293;50.930;3.464;2022-11-14T04:10:12;3.90;93.00
42683;DHT22;28293;50.930;3.464;2022-11-14T04:12:37;3.90;93.10
42683;DHT22;28293;50.930;3.464;2022-11-14T04:15:03;3.90;93.10
42683;DHT22;28293;50.930;3.464;2022-11-14T04:17:29;3.90;93.00
42683;DHT22;28293;50.930;3.464;2022-11-14T04:19:55;3.90;93.10
42683;DHT22;28293;50.930;3.464;2022-11-14T04:22:20;3.90;93.10
42683;DHT22;28293;50.930;3.464;2022-11-14T04:24:46;3.90;93.10
42683;DHT22;28293;50.930;3.464;2022-11-14T04:27:12;3.90;93.00
42683;DHT22;28293;50.930;3.464;2022-11-14T04:29:37;3.80;93.00
42683;DHT22;28293;50.930;3.464;2022-11-14T04:32:03;3.80;92.90
42683;DHT22;28293;50.930;3.464;2022-11-14T04:34:29;3.80;92.90
42683;DHT22;28293;50.930;3.464;2022-11-14T04:36:54;3.70;92.90
42683;DHT22;28293;50.930;3.464;2022-11-14T04:39:20;3.70;92.80
42683;DHT22;28293;50.930;3.464;2022-11-14T04:41:46;3.70;92.80
42683;DHT22;28293;50.930;3.464;2022-11-14T04:44:11;3.60;92.80
42683;DHT22;28293;50.930;3.464;2022-11-14T04:46:37;3.60;92.80
42683;DHT22;28293;50.930;3.464;2022-11-14T04:49:02;3.50;92.80
42683;DHT22;28293;50.930;3.464;2022-11-14T04:51:28;3.50;92.70
42683;DHT22;28293;50.930;3.464;2022-11-14T04:53:54;3.50;92.80
42683;DHT22;28293;50.930;3.464;2022-11-14T04:56:19;3.40;92.80
42683;DHT22;28293;50.930;3.464;2022-11-14T04:58:48;3.40;92.80
42683;DHT22;28293;50.930;3.464;2022-11-14T05:01:14;3.40;92.80
42683;DHT22;28293;50.930;3.464;2022-11-14T05:03:39;3.30;92.50
42683;DHT22;28293;50.930;3.464;2022-11-14T05:06:05;3.20;92.40
42683;DHT22;28293;50.930;3.464;2022-11-14T05:08:31;3.00;92.20
42683;DHT22;28293;50.930;3.464;2022-11-14T05:10:56;2.90;92.30
42683;DHT22;28293;50.930;3.464;2022-11-14T05:13:22;2.90;92.30
42683;DHT22;28293;50.930;3.464;2022-11-14T05:15:48;2.80;92.40
42683;DHT22;28293;50.930;3.464;2022-11-14T05:18:13;2.80;92.50
42683;DHT22;28293;50.930;3.464;2022-11-14T05:20:39;2.90;92.60
42683;DHT22;28293;50.930;3.464;2022-11-14T05:23:05;2.90;92.60
42683;DHT22;28293;50.930;3.464;2022-11-14T05:25:30;2.90;92.70
42683;DHT22;28293;50.930;3.464;2022-11-14T05:27:56;2.90;92.70
42683;DHT22;28293;50.930;3.464;2022-11-14T05:30:21;2.90;92.80
42683;DHT22;28293;50.930;3.464;2022-11-14T05:32:47;2.90;92.70
42683;DHT22;28293;50.930;3.464;2022-11-14T05:35:13;2.80;92.70
42683;DHT22;28293;50.930;3.464;2022-11-14T05:37:38;2.80;92.70
42683;DHT22;28293;50.930;3.464;2022-11-14T05:40:05;2.80;92.70
42683;DHT22;28293;50.930;3.464;2022-11-14T05:42:30;2.70;92.60
42683;DHT22;28293;50.930;3.464;2022-11-14T05:44:56;2.70;92.70
42683;DHT22;28293;50.930;3.464;2022-11-14T05:47:22;2.60;92.70
42683;DHT22;28293;50.930;3.464;2022-11-14T05:49:47;2.60;92.70
42683;DHT22;28293;50.930;3.464;2022-11-14T05:52:13;2.60;92.80
42683;DHT22;28293;50.930;3.464;2022-11-14T05:54:39;2.60;92.80
42683;DHT22;28293;50.930;3.464;2022-11-14T05:57:04;2.50;92.70
42683;DHT22;28293;50.930;3.464;2022-11-14T05:59:30;2.50;92.80
42683;DHT22;28293;50.930;3.464;2022-11-14T06:01:56;2.50;92.90
42683;DHT22;28293;50.930;3.464;2022-11-14T06:04:22;2.50;92.90
42683;DHT22;28293;50.930;3.464;2022-11-14T06:06:47;2.50;92.80
42683;DHT22;28293;50.930;3.464;2022-11-14T06:09:13;2.40;92.80
42683;DHT22;28293;50.930;3.464;2022-11-14T06:11:39;2.50;92.80
42683;DHT22;28293;50.930;3.464;2022-11-14T06:14:05;2.40;92.70
42683;DHT22;28293;50.930;3.464;2022-11-14T06:16:31;2.40;92.70
42683;DHT22;28293;50.930;3.464;2022-11-14T06:18:56;2.30;92.60
42683;DHT22;28293;50.930;3.464;2022-11-14T06:21:23;2.20;92.60
42683;DHT22;28293;50.930;3.464;2022-11-14T06:23:50;2.20;92.70
42683;DHT22;28293;50.930;3.464;2022-11-14T06:26:26;2.20;92.70
42683;DHT22;28293;50.930;3.464;2022-11-14T06:28:55;2.20;92.80
42683;DHT22;28293;50.930;3.464;2022-11-14T06:31:22;2.20;92.80
42683;DHT22;28293;50.930;3.464;2022-11-14T06:33:48;2.20;92.80
42683;DHT22;28293;50.930;3.464;2022-11-14T06:36:14;2.20;92.90
42683;DHT22;28293;50.930;3.464;2022-11-14T06:38:41;2.30;92.90
42683;DHT22;28293;50.930;3.464;2022-11-14T06:41:17;2.30;92.90
42683;DHT22;28293;50.930;3.464;2022-11-14T06:43:45;2.30;92.90
42683;DHT22;28293;50.930;3.464;2022-11-14T06:46:13;2.20;92.90
42683;DHT22;28293;50.930;3.464;2022-11-14T06:48:40;2.20;92.90
42683;DHT22;28293;50.930;3.464;2022-11-14T06:51:06;2.20;92.90
42683;DHT22;28293;50.930;3.464;2022-11-14T06:53:34;2.30;92.90
42683;DHT22;28293;50.930;3.464;2022-11-14T06:56:03;2.30;92.90
42683;DHT22;28293;50.930;3.464;2022-11-14T06:58:34;2.30;92.90
42683;DHT22;28293;50.930;3.464;2022-11-14T07:01:16;2.30;92.90
42683;DHT22;28293;50.930;3.464;2022-11-14T07:03:43;2.30;92.80
42683;DHT22;28293;50.930;3.464;2022-11-14T07:06:11;2.30;92.60
42683;DHT22;28293;50.930;3.464;2022-11-14T07:08:37;2.20;92.40
42683;DHT22;28293;50.930;3.464;2022-11-14T07:11:11;2.30;92.50
42683;DHT22;28293;50.930;3.464;2022-11-14T07:13:50;2.20;92.50
42683;DHT22;28293;50.930;3.464;2022-11-14T07:16:16;2.30;92.50
42683;DHT22;28293;50.930;3.464;2022-11-14T07:18:42;2.30;92.40
42683;DHT22;28293;50.930;3.464;2022-11-14T07:21:08;2.20;92.20
42683;DHT22;28293;50.930;3.464;2022-11-14T07:23:34;2.30;92.20
42683;DHT22;28293;50.930;3.464;2022-11-14T07:26:10;2.30;92.20
42683;DHT22;28293;50.930;3.464;2022-11-14T07:28:38;2.30;92.20
42683;DHT22;28293;50.930;3.464;2022-11-14T07:31:05;2.30;92.30
42683;DHT22;28293;50.930;3.464;2022-11-14T07:33:31;2.30;92.30
42683;DHT22;28293;50.930;3.464;2022-11-14T07:35:57;2.40;92.40
42683;DHT22;28293;50.930;3.464;2022-11-14T07:38:23;2.50;92.40
42683;DHT22;28293;50.930;3.464;2022-11-14T07:40:56;2.60;92.40
42683;DHT22;28293;50.930;3.464;2022-11-14T07:43:22;2.60;92.40
42683;DHT22;28293;50.930;3.464;2022-11-14T07:45:48;2.70;92.40
42683;DHT22;28293;50.930;3.464;2022-11-14T07:48:14;2.70;92.40
42683;DHT22;28293;50.930;3.464;2022-11-14T07:50:40;2.80;92.40
42683;DHT22;28293;50.930;3.464;2022-11-14T07:53:06;2.90;92.40
42683;DHT22;28293;50.930;3.464;2022-11-14T07:55:34;2.90;92.30
42683;DHT22;28293;50.930;3.464;2022-11-14T07:58:00;3.00;92.30
42683;DHT22;28293;50.930;3.464;2022-11-14T08:00:26;3.00;92.30
42683;DHT22;28293;50.930;3.464;2022-11-14T08:02:51;3.10;92.40
42683;DHT22;28293;50.930;3.464;2022-11-14T08:05:17;3.10;92.40
42683;DHT22;28293;50.930;3.464;2022-11-14T08:07:43;3.20;92.40
42683;DHT22;28293;50.930;3.464;2022-11-14T08:10:10;3.30;92.40
42683;DHT22;28293;50.930;3.464;2022-11-14T08:12:37;3.30;92.40
42683;DHT22;28293;50.930;3.464;2022-11-14T08:15:08;3.40;92.40
42683;DHT22;28293;50.930;3.464;2022-11-14T08:17:34;3.40;92.40
42683;DHT22;28293;50.930;3.464;2022-11-14T08:20:00;3.50;92.50
42683;DHT22;28293;50.930;3.464;2022-11-14T08:22:26;3.60;92.70
42683;DHT22;28293;50.930;3.464;2022-11-14T08:24:51;3.80;92.80
42683;DHT22;28293;50.930;3.464;2022-11-14T08:27:17;4.00;93.10
42683;DHT22;28293;50.930;3.464;2022-11-14T08:29:43;4.10;93.20
42683;DHT22;28293;50.930;3.464;2022-11-14T08:32:09;4.30;93.20
42683;DHT22;28293;50.930;3.464;2022-11-14T08:34:34;4.50;93.30
42683;DHT22;28293;50.930;3.464;2022-11-14T08:37:01;4.70;93.30
42683;DHT22;28293;50.930;3.464;2022-11-14T08:39:28;4.80;93.30
42683;DHT22;28293;50.930;3.464;2022-11-14T08:41:54;5.00;93.10
42683;DHT22;28293;50.930;3.464;2022-11-14T08:44:19;5.10;92.90
42683;DHT22;28293;50.930;3.464;2022-11-14T08:46:46;5.10;92.70
42683;DHT22;28293;50.930;3.464;2022-11-14T08:49:11;5.20;92.60
42683;DHT22;28293;50.930;3.464;2022-11-14T08:51:37;5.20;92.40
42683;DHT22;28293;50.930;3.464;2022-11-14T08:54:03;5.10;92.00
42683;DHT22;28293;50.930;3.464;2022-11-14T08:56:29;5.10;91.90
42683;DHT22;28293;50.930;3.464;2022-11-14T08:58:54;5.10;91.70
42683;DHT22;28293;50.930;3.464;2022-11-14T09:01:20;5.10;91.70
42683;DHT22;28293;50.930;3.464;2022-11-14T09:03:46;5.10;91.50
42683;DHT22;28293;50.930;3.464;2022-11-14T09:06:11;5.00;91.40
42683;DHT22;28293;50.930;3.464;2022-11-14T09:08:37;5.00;91.30
42683;DHT22;28293;50.930;3.464;2022-11-14T09:11:03;4.90;91.50
42683;DHT22;28293;50.930;3.464;2022-11-14T09:13:34;5.00;91.60
42683;DHT22;28293;50.930;3.464;2022-11-14T09:16:00;5.00;91.70
42683;DHT22;28293;50.930;3.464;2022-11-14T09:18:26;4.90;91.70
42683;DHT22;28293;50.930;3.464;2022-11-14T09:20:52;4.90;91.60
42683;DHT22;28293;50.930;3.464;2022-11-14T09:23:17;5.00;91.80
42683;DHT22;28293;50.930;3.464;2022-11-14T09:25:43;5.00;91.80
42683;DHT22;28293;50.930;3.464;2022-11-14T09:28:09;4.90;91.50
42683;DHT22;28293;50.930;3.464;2022-11-14T09:30:36;4.90;91.70
42683;DHT22;28293;50.930;3.464;2022-11-14T09:33:03;5.10;91.80
42683;DHT22;28293;50.930;3.464;2022-11-14T09:35:29;5.10;91.80
42683;DHT22;28293;50.930;3.464;2022-11-14T09:38:04;5.00;91.50
42683;DHT22;28293;50.930;3.464;2022-11-14T09:40:45;5.00;91.30
42683;DHT22;28293;50.930;3.464;2022-11-14T09:46:16;4.90;91.40
42683;DHT22;28293;50.930;3.464;2022-11-14T09:48:43;4.90;91.40
42683;DHT22;28293;50.930;3.464;2022-11-14T09:51:15;5.00;91.40
42683;DHT22;28293;50.930;3.464;2022-11-14T09:53:53;5.00;91.40
42683;DHT22;28293;50.930;3.464;2022-11-14T09:56:24;4.90;91.20
42683;DHT22;28293;50.930;3.464;2022-11-14T09:58:51;4.90;91.20
42683;DHT22;28293;50.930;3.464;2022-11-14T10:10:01;5.00;91.30
42683;DHT22;28293;50.930;3.464;2022-11-14T10:15:45;5.00;91.30
42683;DHT22;28293;50.930;3.464;2022-11-14T10:18:17;5.00;91.30
42683;DHT22;28293;50.930;3.464;2022-11-14T10:20:53;5.10;91.50
42683;DHT22;28293;50.930;3.464;2022-11-14T10:26:14;5.20;91.30
42683;DHT22;28293;50.930;3.464;2022-11-14T10:34:05;5.30;91.30
42683;DHT22;28293;50.930;3.464;2022-11-14T10:39:29;5.20;91.20
42683;DHT22;28293;50.930;3.464;2022-11-14T10:42:01;5.30;91.20
42683;DHT22;28293;50.930;3.464;2022-11-14T10:44:39;5.30;91.30
42683;DHT22;28293;50.930;3.464;2022-11-14T10:47:11;5.40;91.10
42683;DHT22;28293;50.930;3.464;2022-11-14T10:49:39;5.50;91.40
42683;DHT22;28293;50.930;3.464;2022-11-14T10:52:17;5.60;91.30
42683;DHT22;28293;50.930;3.464;2022-11-14T10:54:49;5.60;91.20
42683;DHT22;28293;50.930;3.464;2022-11-14T10:57:21;5.60;91.00
42683;DHT22;28293;50.930;3.464;2022-11-14T10:59:47;5.70;91.10
42683;DHT22;28293;50.930;3.464;2022-11-14T11:02:13;5.70;90.90
42683;DHT22;28293;50.930;3.464;2022-11-14T11:04:41;5.60;90.90
42683;DHT22;28293;50.930;3.464;2022-11-14T11:09:38;5.60;91.20
42683;DHT22;28293;50.930;3.464;2022-11-14T11:12:45;5.60;91.30
42683;DHT22;28293;50.930;3.464;2022-11-14T11:15:27;5.80;91.60
42683;DHT22;28293;50.930;3.464;2022-11-14T11:18:00;5.90;91.30
42683;DHT22;28293;50.930;3.464;2022-11-14T11:20:28;5.90;91.10
42683;DHT22;28293;50.930;3.464;2022-11-14T11:25:35;5.90;90.90
42683;DHT22;28293;50.930;3.464;2022-11-14T11:28:05;5.90;90.90
42683;DHT22;28293;50.930;3.464;2022-11-14T11:30:32;5.90;90.90
42683;DHT22;28293;50.930;3.464;2022-11-14T11:33:21;5.90;90.80
42683;DHT22;28293;50.930;3.464;2022-11-14T11:35:49;5.90;91.00
42683;DHT22;28293;50.930;3.464;2022-11-14T11:38:16;5.90;91.10
42683;DHT22;28293;50.930;3.464;2022-11-14T11:40:46;6.00;91.10
42683;DHT22;28293;50.930;3.464;2022-11-14T11:45:47;6.00;91.10
42683;DHT22;28293;50.930;3.464;2022-11-14T11:48:17;6.10;91.10
42683;DHT22;28293;50.930;3.464;2022-11-14T11:50:43;6.10;91.00
42683;DHT22;28293;50.930;3.464;2022-11-14T11:55:47;6.00;90.80
42683;DHT22;28293;50.930;3.464;2022-11-14T12:01:12;6.00;91.00
42683;DHT22;28293;50.930;3.464;2022-11-14T12:03:41;6.00;91.10
42683;DHT22;28293;50.930;3.464;2022-11-14T12:11:25;6.10;91.20
42683;DHT22;28293;50.930;3.464;2022-11-14T12:21:57;6.10;91.20
42683;DHT22;28293;50.930;3.464;2022-11-14T12:24:45;6.10;91.30
42683;DHT22;28293;50.930;3.464;2022-11-14T12:27:44;6.20;91.40
42683;DHT22;28293;50.930;3.464;2022-11-14T12:30:19;6.20;91.20
42683;DHT22;28293;50.930;3.464;2022-11-14T12:33:01;6.10;91.30
42683;DHT22;28293;50.930;3.464;2022-11-14T12:35:33;6.20;91.50
42683;DHT22;28293;50.930;3.464;2022-11-14T12:38:02;6.20;91.50
42683;DHT22;28293;50.930;3.464;2022-11-14T12:40:34;6.10;91.40
42683;DHT22;28293;50.930;3.464;2022-11-14T12:43:03;6.10;91.30
42683;DHT22;28293;50.930;3.464;2022-11-14T12:50:45;6.10;91.60
42683;DHT22;28293;50.930;3.464;2022-11-14T13:01:46;6.20;91.80
42683;DHT22;28293;50.930;3.464;2022-11-14T13:08:06;6.20;91.80
42683;DHT22;28293;50.930;3.464;2022-11-14T13:10:23;6.20;91.70
42683;DHT22;28293;50.930;3.464;2022-11-14T13:15:50;6.20;91.80
42683;DHT22;28293;50.930;3.464;2022-11-14T13:18:40;6.10;91.70
42683;DHT22;28293;50.930;3.464;2022-11-14T13:21:32;6.10;91.90
42683;DHT22;28293;50.930;3.464;2022-11-14T13:24:16;6.10;91.90
42683;DHT22;28293;50.930;3.464;2022-11-14T13:26:50;6.10;91.90
42683;DHT22;28293;50.930;3.464;2022-11-14T13:32:03;6.20;92.00
42683;DHT22;28293;50.930;3.464;2022-11-14T13:34:49;6.10;92.00
42683;DHT22;28293;50.930;3.464;2022-11-14T13:40:54;6.10;91.90
42683;DHT22;28293;50.930;3.464;2022-11-14T13:44:12;6.10;92.00
42683;DHT22;28293;50.930;3.464;2022-11-14T13:46:58;6.20;92.00
42683;DHT22;28293;50.930;3.464;2022-11-14T13:52:16;6.20;91.90
42683;DHT22;28293;50.930;3.464;2022-11-14T13:54:47;6.20;92.00
42683;DHT22;28293;50.930;3.464;2022-11-14T13:57:47;6.30;91.90
42683;DHT22;28293;50.930;3.464;2022-11-14T14:00:16;6.30;91.80
42683;DHT22;28293;50.930;3.464;2022-11-14T14:03:16;6.30;91.70
42683;DHT22;28293;50.930;3.464;2022-11-14T14:06:11;6.30;91.80
42683;DHT22;28293;50.930;3.464;2022-11-14T14:09:01;6.30;91.80
42683;DHT22;28293;50.930;3.464;2022-11-14T14:11:38;6.20;91.90
42683;DHT22;28293;50.930;3.464;2022-11-14T14:25:14;6.20;92.30
42683;DHT22;28293;50.930;3.464;2022-11-14T14:30:29;6.20;92.40
42683;DHT22;28293;50.930;3.464;2022-11-14T14:33:11;6.30;92.40
42683;DHT22;28293;50.930;3.464;2022-11-14T14:35:37;6.30;92.40
42683;DHT22;28293;50.930;3.464;2022-11-14T14:38:12;6.30;92.50
42683;DHT22;28293;50.930;3.464;2022-11-14T14:40:46;6.30;92.40
42683;DHT22;28293;50.930;3.464;2022-11-14T14:43:25;6.30;92.40
42683;DHT22;28293;50.930;3.464;2022-11-14T14:45:52;6.30;92.50
42683;DHT22;28293;50.930;3.464;2022-11-14T14:48:23;6.40;92.60
42683;DHT22;28293;50.930;3.464;2022-11-14T14:50:52;6.30;92.50
42683;DHT22;28293;50.930;3.464;2022-11-14T14:53:27;6.30;92.60
42683;DHT22;28293;50.930;3.464;2022-11-14T14:56:03;6.30;92.70
42683;DHT22;28293;50.930;3.464;2022-11-14T14:58:29;6.40;92.70
42683;DHT22;28293;50.930;3.464;2022-11-14T15:03:22;6.40;92.80
42683;DHT22;28293;50.930;3.464;2022-11-14T15:05:48;6.40;92.70
42683;DHT22;28293;50.930;3.464;2022-11-14T15:08:21;6.40;92.70
42683;DHT22;28293;50.930;3.464;2022-11-14T15:10:46;6.40;92.70
42683;DHT22;28293;50.930;3.464;2022-11-14T15:13:14;6.40;92.80
42683;DHT22;28293;50.930;3.464;2022-11-14T15:15:42;6.40;92.80
42683;DHT22;28293;50.930;3.464;2022-11-14T15:18:17;6.40;92.80
42683;DHT22;28293;50.930;3.464;2022-11-14T15:23:45;6.40;92.80
42683;DHT22;28293;50.930;3.464;2022-11-14T15:26:16;6.40;92.70
42683;DHT22;28293;50.930;3.464;2022-11-14T15:28:43;6.40;92.70
42683;DHT22;28293;50.930;3.464;2022-11-14T15:31:18;6.40;92.80
42683;DHT22;28293;50.930;3.464;2022-11-14T15:33:45;6.50;92.90
42683;DHT22;28293;50.930;3.464;2022-11-14T15:36:15;6.40;92.90
42683;DHT22;28293;50.930;3.464;2022-11-14T15:39:02;6.40;92.90
42683;DHT22;28293;50.930;3.464;2022-11-14T15:41:30;6.50;93.00
42683;DHT22;28293;50.930;3.464;2022-11-14T15:43:56;6.50;92.90
42683;DHT22;28293;50.930;3.464;2022-11-14T15:49:23;6.50;92.90
42683;DHT22;28293;50.930;3.464;2022-11-14T15:51:55;6.50;92.90
42683;DHT22;28293;50.930;3.464;2022-11-14T15:56:52;6.50;93.00
42683;DHT22;28293;50.930;3.464;2022-11-14T15:59:18;6.60;93.10
42683;DHT22;28293;50.930;3.464;2022-11-14T16:01:46;6.60;93.30
42683;DHT22;28293;50.930;3.464;2022-11-14T16:04:20;6.60;93.20
42683;DHT22;28293;50.930;3.464;2022-11-14T16:06:47;6.60;93.30
42683;DHT22;28293;50.930;3.464;2022-11-14T16:09:15;6.70;93.10
42683;DHT22;28293;50.930;3.464;2022-11-14T16:11:41;6.60;93.00
42683;DHT22;28293;50.930;3.464;2022-11-14T16:14:07;6.70;93.10
42683;DHT22;28293;50.930;3.464;2022-11-14T16:16:32;6.70;93.10
42683;DHT22;28293;50.930;3.464;2022-11-14T16:18:58;6.70;93.10
42683;DHT22;28293;50.930;3.464;2022-11-14T16:21:23;6.70;93.10
42683;DHT22;28293;50.930;3.464;2022-11-14T16:23:49;6.70;93.10
42683;DHT22;28293;50.930;3.464;2022-11-14T16:26:15;6.70;93.10
42683;DHT22;28293;50.930;3.464;2022-11-14T16:28:40;6.70;93.20
42683;DHT22;28293;50.930;3.464;2022-11-14T16:31:13;6.70;93.20
42683;DHT22;28293;50.930;3.464;2022-11-14T16:33:39;6.70;93.10
42683;DHT22;28293;50.930;3.464;2022-11-14T16:36:08;6.80;93.10
42683;DHT22;28293;50.930;3.464;2022-11-14T16:38:35;6.80;93.10
42683;DHT22;28293;50.930;3.464;2022-11-14T16:41:05;6.80;93.20
42683;DHT22;28293;50.930;3.464;2022-11-14T16:43:32;6.80;93.10
42683;DHT22;28293;50.930;3.464;2022-11-14T16:46:02;6.80;93.20
42683;DHT22;28293;50.930;3.464;2022-11-14T16:48:28;6.80;93.20
42683;DHT22;28293;50.930;3.464;2022-11-14T16:50:53;6.70;93.30
42683;DHT22;28293;50.930;3.464;2022-11-14T16:53:19;6.70;93.30
42683;DHT22;28293;50.930;3.464;2022-11-14T16:55:45;6.70;93.40
42683;DHT22;28293;50.930;3.464;2022-11-14T16:58:11;6.70;93.30
42683;DHT22;28293;50.930;3.464;2022-11-14T17:00:36;6.70;93.30
42683;DHT22;28293;50.930;3.464;2022-11-14T17:03:02;6.70;93.40
42683;DHT22;28293;50.930;3.464;2022-11-14T17:05:27;6.70;93.40
42683;DHT22;28293;50.930;3.464;2022-11-14T17:07:55;6.80;93.50
42683;DHT22;28293;50.930;3.464;2022-11-14T17:10:21;6.80;93.40
42683;DHT22;28293;50.930;3.464;2022-11-14T17:12:46;6.80;93.50
42683;DHT22;28293;50.930;3.464;2022-11-14T17:15:12;6.70;93.60
42683;DHT22;28293;50.930;3.464;2022-11-14T17:17:37;6.80;93.60
42683;DHT22;28293;50.930;3.464;2022-11-14T17:20:03;6.80;93.70
42683;DHT22;28293;50.930;3.464;2022-11-14T17:22:29;6.80;93.80
42683;DHT22;28293;50.930;3.464;2022-11-14T17:24:55;6.80;93.70
42683;DHT22;28293;50.930;3.464;2022-11-14T17:27:20;6.80;93.80
42683;DHT22;28293;50.930;3.464;2022-11-14T17:29:46;6.90;93.80
42683;DHT22;28293;50.930;3.464;2022-11-14T17:32:12;6.80;93.80
42683;DHT22;28293;50.930;3.464;2022-11-14T17:34:37;6.90;93.90
42683;DHT22;28293;50.930;3.464;2022-11-14T17:37:03;6.90;93.80
42683;DHT22;28293;50.930;3.464;2022-11-14T17:39:28;6.90;93.90
42683;DHT22;28293;50.930;3.464;2022-11-14T17:41:54;6.90;93.90
42683;DHT22;28293;50.930;3.464;2022-11-14T17:44:20;6.90;93.90